createdAt,value
2018-06-04T00:00:22.669Z,12.30
2018-06-04T00:02:51.992Z,13.53
2018-06-04T00:05:21.389Z,13.50
2018-06-04T00:07:50.724Z,13.63
2018-06-04T00:10:20.084Z,15.50
2018-06-04T00:12:49.487Z,13.80
2018-06-04T00:15:18.839Z,16.57
2018-06-04T00:17:48.157Z,14.60
2018-06-04T00:20:17.696Z,14.77
2018-06-04T00:22:47.080Z,13.60
2018-06-04T00:25:16.460Z,14.97
2018-06-04T00:27:46.366Z,15.77
2018-06-04T00:30:15.739Z,13.20
2018-06-04T00:32:45.120Z,14.63
2018-06-04T00:35:14.499Z,14.00
2018-06-04T00:37:44.001Z,13.33
2018-06-04T00:40:13.350Z,14.83
2018-06-04T00:42:42.179Z,14.60
2018-06-04T00:45:11.521Z,13.80
2018-06-04T00:47:40.891Z,15.63
2018-06-04T00:50:10.409Z,14.20
2018-06-04T00:52:39.791Z,15.67
2018-06-04T00:55:09.156Z,14.07
2018-06-04T00:57:39.214Z,14.70
2018-06-04T01:00:08.671Z,16.40
2018-06-04T01:02:37.548Z,16.50
2018-06-04T01:05:07.063Z,19.83
2018-06-04T01:07:36.499Z,17.30
2018-06-04T01:10:05.943Z,16.17
2018-06-04T01:12:35.325Z,17.93
2018-06-04T01:15:04.740Z,17.80
2018-06-04T01:17:34.093Z,17.40
2018-06-04T01:20:02.899Z,18.67
2018-06-04T01:22:32.275Z,19.47
2018-06-04T01:25:01.099Z,21.23
2018-06-04T01:27:30.533Z,19.33
2018-06-04T01:29:59.903Z,18.33
2018-06-04T01:32:29.262Z,17.37
2018-06-04T01:34:58.674Z,17.60
2018-06-04T01:37:28.041Z,16.83
2018-06-04T01:39:57.462Z,17.37
2018-06-04T01:42:26.925Z,15.70
2018-06-04T01:44:56.365Z,16.43
2018-06-04T01:47:25.718Z,16.70
2018-06-04T01:49:55.094Z,17.50
2018-06-04T01:52:24.414Z,17.93
2018-06-04T01:54:53.755Z,17.63
2018-06-04T01:57:23.161Z,18.57
2018-06-04T01:59:52.544Z,18.60
2018-06-04T02:02:21.874Z,17.70
2018-06-04T02:04:51.285Z,19.33
2018-06-04T02:07:20.662Z,18.50
2018-06-04T02:09:50.052Z,18.80
2018-06-04T02:12:19.459Z,18.77
2018-06-04T02:14:48.936Z,20.33
2018-06-04T02:17:18.336Z,20.80
2018-06-04T02:19:47.737Z,19.67
2018-06-04T02:22:17.085Z,18.90
2018-06-04T02:24:46.471Z,19.97
2018-06-04T02:27:15.850Z,19.77
2018-06-04T02:29:45.229Z,19.00
2018-06-04T02:32:14.582Z,19.70
2018-06-04T02:34:43.983Z,17.80
2018-06-04T02:37:13.363Z,18.43
2018-06-04T02:39:42.718Z,20.30
2018-06-04T02:42:11.597Z,22.90
2018-06-04T02:44:40.904Z,20.43
2018-06-04T02:47:10.238Z,21.03
2018-06-04T02:49:39.626Z,21.20
2018-06-04T02:52:09.015Z,19.20
2018-06-04T02:54:37.931Z,22.73
2018-06-04T02:57:07.311Z,22.37
2018-06-04T02:59:37.155Z,22.13
2018-06-04T03:02:06.797Z,22.90
2018-06-04T03:04:36.196Z,20.27
2018-06-04T03:07:05.695Z,20.83
2018-06-04T03:09:35.060Z,18.67
2018-06-04T03:12:04.533Z,19.10
2018-06-04T03:14:34.893Z,19.30
2018-06-04T03:17:04.245Z,17.43
2018-06-04T03:19:33.668Z,17.73
2018-06-04T03:22:03.025Z,18.23
2018-06-04T03:24:32.334Z,18.53
2018-06-04T03:27:01.687Z,18.03
2018-06-04T03:29:30.482Z,17.10
2018-06-04T03:31:59.801Z,17.20
2018-06-04T03:34:29.165Z,16.77
2018-06-04T03:36:57.980Z,17.80
2018-06-04T03:39:27.352Z,15.50
2018-06-04T03:41:56.899Z,18.23
2018-06-04T03:44:26.292Z,16.30
2018-06-04T03:46:55.771Z,18.00
2018-06-04T03:49:24.687Z,18.10
2018-06-04T03:51:54.032Z,16.37
2018-06-04T03:54:23.376Z,17.00
2018-06-04T03:56:52.230Z,19.00
2018-06-04T03:59:21.564Z,20.57
2018-06-04T04:01:50.914Z,19.60
2018-06-04T04:04:20.339Z,19.63
2018-06-04T04:06:49.679Z,20.90
2018-06-04T04:09:19.060Z,21.27
2018-06-04T04:11:48.538Z,23.40
2018-06-04T04:14:17.893Z,21.20
2018-06-04T04:16:47.280Z,22.80
2018-06-04T04:19:16.736Z,21.17
2018-06-04T04:21:46.141Z,19.00
2018-06-04T04:24:15.479Z,20.50
2018-06-04T04:26:45.251Z,19.60
2018-06-04T04:29:14.609Z,18.93
2018-06-04T04:31:43.924Z,21.17
2018-06-04T04:34:13.278Z,19.33
2018-06-04T04:36:42.607Z,19.77
2018-06-04T04:39:11.972Z,19.80
2018-06-04T04:41:41.420Z,21.17
2018-06-04T04:44:10.779Z,21.13
2018-06-04T04:46:40.163Z,21.40
2018-06-04T04:49:09.512Z,22.00
2018-06-04T04:51:38.835Z,21.60
2018-06-04T04:54:08.205Z,23.37
2018-06-04T04:56:37.589Z,22.37
2018-06-04T04:59:07.073Z,21.53
2018-06-04T05:01:36.568Z,20.90
2018-06-04T05:04:06.016Z,21.77
2018-06-04T05:06:34.808Z,20.10
2018-06-04T05:09:04.342Z,20.27
2018-06-04T05:11:33.732Z,20.53
2018-06-04T05:14:03.231Z,21.37
2018-06-04T05:16:33.239Z,20.47
2018-06-04T05:19:02.222Z,19.93
2018-06-04T05:21:31.757Z,18.40
2018-06-04T05:24:01.232Z,19.43
2018-06-04T05:26:30.804Z,21.90
2018-06-04T05:29:00.225Z,22.10
2018-06-04T05:31:29.610Z,20.77
2018-06-04T05:33:58.980Z,19.93
2018-06-04T05:36:28.460Z,21.13
2018-06-04T05:38:57.314Z,20.90
2018-06-04T05:41:26.638Z,19.20
2018-06-04T05:43:56.036Z,20.30
2018-06-04T05:46:25.468Z,19.47
2018-06-04T05:48:54.903Z,21.60
2018-06-04T05:51:24.270Z,21.70
2018-06-04T05:53:53.702Z,22.47
2018-06-04T05:56:23.102Z,20.87
2018-06-04T05:58:52.521Z,20.77
2018-06-04T06:01:21.904Z,22.57
2018-06-04T06:06:51.089Z,21.70
2018-06-04T06:09:20.420Z,22.17
2018-06-04T06:11:49.857Z,24.20
2018-06-04T06:14:19.340Z,24.13
2018-06-04T06:16:50.808Z,23.50
2018-06-04T06:19:20.202Z,24.50
2018-06-04T06:21:49.708Z,23.53
2018-06-04T06:24:19.076Z,24.47
2018-06-04T06:26:48.479Z,24.47
2018-06-04T06:29:17.810Z,22.90
2018-06-04T06:31:47.323Z,22.00
2018-06-04T06:34:16.829Z,20.50
2018-06-04T06:36:45.739Z,20.63
2018-06-04T06:39:14.544Z,21.50
2018-06-04T06:41:44.004Z,21.07
2018-06-04T06:44:13.347Z,20.73
2018-06-04T06:46:43.127Z,18.67
2018-06-04T06:49:12.486Z,17.57
2018-06-04T06:51:41.865Z,16.43
2018-06-04T06:54:11.302Z,16.30
2018-06-04T06:56:40.664Z,15.00
2018-06-04T06:59:10.019Z,13.67
2018-06-04T07:01:39.380Z,14.50
2018-06-04T07:04:08.718Z,13.20
2018-06-04T07:06:38.196Z,12.73
2018-06-04T07:09:09.303Z,13.37
2018-06-04T07:11:38.765Z,13.70
2018-06-04T07:14:08.399Z,14.33
2018-06-04T07:16:37.752Z,12.17
2018-06-04T07:19:07.153Z,14.67
2018-06-04T07:21:36.548Z,13.30
2018-06-04T07:24:05.936Z,13.57
2018-06-04T07:26:35.326Z,13.77
2018-06-04T07:29:04.156Z,12.80
2018-06-04T07:31:33.487Z,10.90
2018-06-04T07:34:02.871Z,11.40
2018-06-04T07:36:32.195Z,10.47
2018-06-04T07:39:01.573Z,12.50
2018-06-04T07:41:30.960Z,10.90
2018-06-04T07:44:00.336Z,12.13
2018-06-04T07:46:29.657Z,12.27
2018-06-04T07:48:59.049Z,12.40
2018-06-04T07:51:28.403Z,12.90
2018-06-04T07:53:57.804Z,12.37
2018-06-04T07:56:27.214Z,11.93
2018-06-04T07:58:56.656Z,10.90
2018-06-04T08:01:26.039Z,11.47
2018-06-04T08:03:54.845Z,10.70
2018-06-04T08:06:24.163Z,9.80
2018-06-04T08:08:53.533Z,10.53
2018-06-04T08:11:23.300Z,9.80
2018-06-04T08:13:52.624Z,10.30
2018-06-04T08:16:22.061Z,9.07
2018-06-04T08:18:51.457Z,10.20
2018-06-04T08:21:20.834Z,8.90
2018-06-04T08:23:50.367Z,9.50
2018-06-04T08:26:19.723Z,8.17
2018-06-04T08:28:49.077Z,8.47
2018-06-04T08:31:18.524Z,9.97
2018-06-04T08:33:47.849Z,8.87
2018-06-04T08:36:17.196Z,8.77
2018-06-04T08:38:46.591Z,9.13
2018-06-04T08:41:15.961Z,7.80
2018-06-04T08:43:44.809Z,7.27
2018-06-04T08:46:14.276Z,9.70
2018-06-04T08:48:43.683Z,9.83
2018-06-04T08:51:14.465Z,8.83
2018-06-04T08:53:43.792Z,8.07
2018-06-04T08:56:12.565Z,9.20
2018-06-04T08:58:41.966Z,9.10
2018-06-04T09:01:11.314Z,8.37
2018-06-04T09:03:40.720Z,8.93
2018-06-04T09:06:10.094Z,8.00
2018-06-04T09:08:38.898Z,7.30
2018-06-04T09:11:08.388Z,7.17
2018-06-04T09:13:37.400Z,7.17
2018-06-04T09:16:06.836Z,8.33
2018-06-04T09:18:36.379Z,7.87
2018-06-04T09:21:05.864Z,7.63
2018-06-04T09:23:35.275Z,7.67
2018-06-04T09:26:04.736Z,7.87
2018-06-04T09:28:34.217Z,7.73
2018-06-04T09:31:03.592Z,8.03
2018-06-04T09:33:33.512Z,7.77
2018-06-04T09:36:02.992Z,7.20
2018-06-04T09:38:32.342Z,7.97
2018-06-04T09:41:01.684Z,7.90
2018-06-04T09:43:31.044Z,9.63
2018-06-04T09:46:00.416Z,7.40
2018-06-04T09:48:29.742Z,7.83
2018-06-04T09:50:59.157Z,8.97
2018-06-04T09:53:28.623Z,6.43
2018-06-04T09:55:58.041Z,6.47
2018-06-04T09:58:27.431Z,7.33
2018-06-04T10:00:56.853Z,7.63
2018-06-04T10:03:26.234Z,6.20
2018-06-04T10:05:55.568Z,6.90
2018-06-04T10:08:24.991Z,6.30
2018-06-04T10:10:54.461Z,7.50
2018-06-04T10:13:23.327Z,7.30
2018-06-04T10:15:52.717Z,7.40
2018-06-04T10:18:22.239Z,7.80
2018-06-04T10:20:51.715Z,7.20
2018-06-04T10:23:21.036Z,7.67
2018-06-04T10:25:50.374Z,7.10
2018-06-04T10:28:19.778Z,7.20
2018-06-04T10:30:49.141Z,6.47
2018-06-04T10:33:18.541Z,6.43
2018-06-04T10:35:47.938Z,7.30
2018-06-04T10:38:17.295Z,6.20
2018-06-04T10:40:46.644Z,7.10
2018-06-04T10:43:16.099Z,7.23
2018-06-04T10:45:45.464Z,7.90
2018-06-04T10:48:14.811Z,8.00
2018-06-04T10:50:44.163Z,7.67
2018-06-04T10:53:13.482Z,5.83
2018-06-04T10:55:42.281Z,7.43
2018-06-04T10:58:11.643Z,7.97
2018-06-04T11:00:41.018Z,7.60
2018-06-04T11:03:10.419Z,8.00
2018-06-04T11:05:39.798Z,6.40
2018-06-04T11:08:09.641Z,6.30
2018-06-04T11:10:39.068Z,6.17
2018-06-04T11:13:08.449Z,5.63
2018-06-04T11:15:38.030Z,5.87
2018-06-04T11:18:07.569Z,6.30
2018-06-04T11:20:37.102Z,6.20
2018-06-04T11:23:05.990Z,4.70
2018-06-04T11:25:35.342Z,5.60
2018-06-04T11:28:04.720Z,5.27
2018-06-04T11:30:34.124Z,6.47
2018-06-04T11:45:58.129Z,5.50
2018-06-04T11:48:29.531Z,5.83
2018-06-04T11:50:58.911Z,6.20
2018-06-04T11:53:28.365Z,6.23
2018-06-04T11:55:57.861Z,6.40
2018-06-04T11:58:27.944Z,5.93
2018-06-04T12:00:57.345Z,4.87
2018-06-04T12:03:26.653Z,4.87
2018-06-04T12:05:56.054Z,5.07
2018-06-04T12:08:25.459Z,5.80
2018-06-04T12:10:55.116Z,6.23
2018-06-04T12:13:24.433Z,5.20
2018-06-04T12:15:53.930Z,5.10
2018-06-04T12:18:23.559Z,5.40
2018-06-04T12:20:53.050Z,5.10
2018-06-04T12:23:22.509Z,5.43
2018-06-04T12:25:51.927Z,4.60
2018-06-04T12:28:21.532Z,5.37
2018-06-04T12:30:51.038Z,4.50
2018-06-04T12:33:20.397Z,4.27
2018-06-04T12:35:49.731Z,5.20
2018-06-04T12:38:19.143Z,5.03
2018-06-04T12:40:48.509Z,5.13
2018-06-04T12:43:17.882Z,4.60
2018-06-04T12:45:47.308Z,5.03
2018-06-04T12:48:17.220Z,5.33
2018-06-04T12:50:46.592Z,4.83
2018-06-04T12:53:16.130Z,4.80
2018-06-04T12:55:45.476Z,5.43
2018-06-04T12:58:14.847Z,4.67
2018-06-04T13:00:44.215Z,4.80
2018-06-04T13:03:13.558Z,5.30
2018-06-04T13:05:43.007Z,4.40
2018-06-04T13:08:12.442Z,4.70
2018-06-04T13:10:41.904Z,5.17
2018-06-04T13:13:11.354Z,4.80
2018-06-04T13:15:40.720Z,4.60
2018-06-04T13:18:10.123Z,4.50
2018-06-04T13:20:39.718Z,4.53
2018-06-04T13:23:09.107Z,4.63
2018-06-04T13:25:38.596Z,4.77
2018-06-04T13:28:08.474Z,4.43
2018-06-04T13:30:38.070Z,4.93
2018-06-04T13:33:06.900Z,4.23
2018-06-04T13:35:36.260Z,4.23
2018-06-04T13:38:05.739Z,5.13
2018-06-04T13:40:35.165Z,4.43
2018-06-04T13:43:04.509Z,4.87
2018-06-04T13:45:33.916Z,5.13
2018-06-04T13:48:04.206Z,4.33
2018-06-04T13:50:33.607Z,5.90
2018-06-04T13:53:02.964Z,4.10
2018-06-04T13:55:32.300Z,3.90
2018-06-04T13:58:02.165Z,5.17
2018-06-04T14:00:31.466Z,4.50
2018-06-04T14:03:00.845Z,5.07
2018-06-04T14:05:30.242Z,4.90
2018-06-04T14:07:59.562Z,3.67
2018-06-04T14:10:29.100Z,4.63
2018-06-04T14:12:58.743Z,4.40
2018-06-04T14:15:28.260Z,4.60
2018-06-04T14:17:57.690Z,4.30
2018-06-04T14:20:27.165Z,4.53
2018-06-04T14:22:56.763Z,4.13
2018-06-04T14:25:26.358Z,3.20
2018-06-04T14:27:55.732Z,5.53
2018-06-04T14:30:25.086Z,4.37
2018-06-04T14:32:54.471Z,5.87
2018-06-04T14:35:23.846Z,4.77
2018-06-04T14:37:53.173Z,3.80
2018-06-04T14:40:22.557Z,3.83
2018-06-04T14:42:51.889Z,4.43
2018-06-04T14:45:21.206Z,5.27
2018-06-04T14:47:50.549Z,4.43
2018-06-04T14:50:19.843Z,4.50
2018-06-04T14:52:49.175Z,3.90
2018-06-04T14:55:18.603Z,4.93
2018-06-04T14:57:47.930Z,4.17
2018-06-04T15:00:17.262Z,4.53
2018-06-04T15:02:46.695Z,4.77
2018-06-04T15:05:16.074Z,4.20
2018-06-04T15:07:45.502Z,4.13
2018-06-04T15:10:14.913Z,3.50
2018-06-04T15:12:44.356Z,4.70
2018-06-04T15:15:13.838Z,3.87
2018-06-04T15:17:43.241Z,4.13
2018-06-04T15:20:12.631Z,4.23
2018-06-04T15:22:41.973Z,5.27
2018-06-04T15:25:11.428Z,4.40
2018-06-04T15:27:40.791Z,5.03
2018-06-04T15:30:10.164Z,4.47
2018-06-04T15:32:39.681Z,4.50
2018-06-04T15:35:09.044Z,4.60
2018-06-04T15:37:39.334Z,4.33
2018-06-04T15:40:08.691Z,6.00
2018-06-04T15:42:38.119Z,3.63
2018-06-04T15:45:07.561Z,4.13
2018-06-04T15:47:37.883Z,5.07
2018-06-04T15:50:07.333Z,3.80
2018-06-04T15:52:37.243Z,4.70
2018-06-04T15:55:06.735Z,4.23
2018-06-04T15:57:36.235Z,3.52
2018-06-04T16:00:05.819Z,4.40
2018-06-04T16:02:35.185Z,4.33
2018-06-04T16:05:04.588Z,5.23
2018-06-04T16:07:33.922Z,3.70
2018-06-04T16:10:03.293Z,4.37
2018-06-04T16:12:32.629Z,4.80
2018-06-04T16:15:01.991Z,5.20
2018-06-04T16:17:31.367Z,3.63
2018-06-04T16:20:00.700Z,4.20
2018-06-04T16:22:30.058Z,4.77
2018-06-04T16:24:59.446Z,4.70
2018-06-04T16:27:28.800Z,4.97
2018-06-04T16:29:58.160Z,4.40
2018-06-04T16:32:27.538Z,4.87
2018-06-04T16:34:56.874Z,5.13
2018-06-04T16:37:26.313Z,4.50
2018-06-04T16:39:55.691Z,5.37
2018-06-04T16:42:24.995Z,5.00
2018-06-04T16:44:54.396Z,4.30
2018-06-04T16:47:23.804Z,4.70
2018-06-04T16:49:53.134Z,4.50
2018-06-04T16:52:22.520Z,3.87
2018-06-04T16:54:51.910Z,4.70
2018-06-04T16:57:21.255Z,4.20
2018-06-04T16:59:50.624Z,5.77
2018-06-04T17:02:19.523Z,4.27
2018-06-04T17:04:48.878Z,4.80
2018-06-04T17:07:18.242Z,4.60
2018-06-04T17:09:47.617Z,4.20
2018-06-04T17:12:17.037Z,4.13
2018-06-04T17:14:45.850Z,4.80
2018-06-04T17:17:15.297Z,4.80
2018-06-04T17:19:45.220Z,4.93
2018-06-04T17:22:15.330Z,5.40
2018-06-04T17:24:44.712Z,3.97
2018-06-04T17:27:14.634Z,4.60
2018-06-04T17:29:44.064Z,4.20
2018-06-04T17:32:13.440Z,5.63
2018-06-04T17:34:42.840Z,4.40
2018-06-04T17:37:12.220Z,4.90
2018-06-04T17:39:41.606Z,4.27
2018-06-04T17:42:11.289Z,4.37
2018-06-04T17:44:40.107Z,5.20
2018-06-04T17:47:09.447Z,6.50
2018-06-04T17:49:39.286Z,5.10
2018-06-04T17:52:08.743Z,5.30
2018-06-04T17:54:38.081Z,7.03
2018-06-04T17:57:07.499Z,5.27
2018-06-04T17:59:36.951Z,5.10
2018-06-04T18:02:06.639Z,6.03
2018-06-04T18:04:35.998Z,4.70
2018-06-04T18:07:05.389Z,6.00
2018-06-04T18:09:34.739Z,5.43
2018-06-04T18:12:04.192Z,5.93
2018-06-04T18:14:33.606Z,6.03
2018-06-04T18:17:03.073Z,5.33
2018-06-04T18:19:32.468Z,5.13
2018-06-04T18:22:01.811Z,5.30
2018-06-04T18:24:31.233Z,6.43
2018-06-04T18:27:00.686Z,5.07
2018-06-04T18:29:30.102Z,5.33
2018-06-04T18:31:59.582Z,5.70
2018-06-04T18:34:28.973Z,5.90
2018-06-04T18:36:58.368Z,6.20
2018-06-04T18:39:27.722Z,5.67
2018-06-04T18:41:57.096Z,5.60
2018-06-04T18:44:26.493Z,5.83
2018-06-04T18:46:55.896Z,6.87
2018-06-04T18:49:25.739Z,5.62
2018-06-04T18:51:55.216Z,6.73
2018-06-04T18:54:24.594Z,6.20
2018-06-04T18:56:53.893Z,5.73
2018-06-04T18:59:23.251Z,6.73
2018-06-04T19:01:52.711Z,5.67
2018-06-04T19:04:22.075Z,6.20
2018-06-04T19:06:51.453Z,6.37
2018-06-04T19:09:20.881Z,5.80
2018-06-04T19:11:49.734Z,6.97
2018-06-04T19:14:19.090Z,6.90
2018-06-04T19:16:47.979Z,6.10
2018-06-04T19:19:26.784Z,6.83
2018-06-04T19:21:59.514Z,6.10
2018-06-04T19:24:28.900Z,12.73
2018-06-04T19:26:58.286Z,8.73
2018-06-04T19:29:27.646Z,8.17
2018-06-04T19:31:57.095Z,62.13
2018-06-04T19:34:26.852Z,22.47
2018-06-04T19:36:56.252Z,12.10
2018-06-04T19:39:25.606Z,10.47
2018-06-04T19:41:54.501Z,10.60
2018-06-04T19:44:23.959Z,8.53
2018-06-04T19:46:53.588Z,6.23
2018-06-04T19:49:23.388Z,7.30
2018-06-04T19:51:52.850Z,8.00
2018-06-04T19:54:22.196Z,7.90
2018-06-04T19:56:51.634Z,7.43
2018-06-04T19:59:20.416Z,6.80
2018-06-04T20:01:49.246Z,8.77
2018-06-04T20:04:18.647Z,7.67
2018-06-04T20:06:48.032Z,7.17
2018-06-04T20:09:17.498Z,6.67
2018-06-04T20:11:46.906Z,7.70
2018-06-04T20:14:16.698Z,7.33
2018-06-04T20:16:54.347Z,6.93
2018-06-04T20:19:26.082Z,6.70
2018-06-04T20:22:07.557Z,6.73
2018-06-04T20:24:37.087Z,6.73
2018-06-04T20:27:06.753Z,7.53
2018-06-04T20:29:36.366Z,6.07
2018-06-04T20:32:06.085Z,6.27
2018-06-04T20:34:40.136Z,6.83
2018-06-04T20:37:11.939Z,5.53
2018-06-04T20:39:41.316Z,6.70
2018-06-04T20:42:16.082Z,7.50
2018-06-04T20:44:45.818Z,7.27
2018-06-04T20:47:21.670Z,6.83
2018-06-04T20:49:51.069Z,7.40
2018-06-04T20:52:20.530Z,7.23
2018-06-04T20:54:50.012Z,7.13
2018-06-04T20:57:19.420Z,6.80
2018-06-04T20:59:48.857Z,7.17
2018-06-04T21:02:18.259Z,7.03
2018-06-04T21:04:47.638Z,8.00
2018-06-04T21:07:17.094Z,7.70
2018-06-04T21:09:46.537Z,7.83
2018-06-04T21:12:15.901Z,6.87
2018-06-04T21:14:45.349Z,6.87
2018-06-04T21:17:14.689Z,7.90
2018-06-04T21:19:43.520Z,6.20
2018-06-04T21:22:12.857Z,7.20
2018-06-04T21:24:42.400Z,7.87
2018-06-04T21:27:11.767Z,7.17
2018-06-04T21:29:41.609Z,6.57
2018-06-04T21:32:10.962Z,6.97
2018-06-04T21:34:40.363Z,6.60
2018-06-04T21:37:09.785Z,7.33
2018-06-04T21:39:39.580Z,6.87
2018-06-04T21:42:08.980Z,7.50
2018-06-04T21:44:38.359Z,6.10
2018-06-04T21:47:07.752Z,6.90
2018-06-04T21:49:37.255Z,5.90
2018-06-04T21:52:06.723Z,7.17
2018-06-04T21:54:36.161Z,6.60
2018-06-04T21:57:05.669Z,6.67
2018-06-04T21:59:35.025Z,6.30
2018-06-04T22:02:04.519Z,6.60
2018-06-04T22:04:33.949Z,5.80
2018-06-04T22:07:02.729Z,5.60
2018-06-04T22:09:32.099Z,6.80
2018-06-04T22:12:01.505Z,5.80
2018-06-04T22:14:30.893Z,6.07
2018-06-04T22:17:00.380Z,4.73
2018-06-04T22:19:29.754Z,6.53
2018-06-04T22:21:59.271Z,6.07
2018-06-04T22:24:29.681Z,7.77
2018-06-04T22:26:58.566Z,8.20
2018-06-04T22:29:27.389Z,7.47
2018-06-04T22:31:56.770Z,7.30
2018-06-04T22:34:26.272Z,9.83
2018-06-04T22:36:55.622Z,7.03
2018-06-04T22:39:25.269Z,6.90
2018-06-04T22:41:54.682Z,6.67
2018-06-04T22:44:24.108Z,6.93
2018-06-04T22:46:53.585Z,6.87
2018-06-04T22:49:22.977Z,8.80
2018-06-04T22:51:52.344Z,6.70
2018-06-04T22:54:21.740Z,8.30
2018-06-04T22:56:51.095Z,8.13
2018-06-04T22:59:20.474Z,9.77
2018-06-04T23:01:49.869Z,8.90
2018-06-04T23:04:19.270Z,7.60
2018-06-04T23:06:48.694Z,8.20
2018-06-04T23:09:18.036Z,7.57
2018-06-04T23:11:47.466Z,9.23
2018-06-04T23:14:16.810Z,8.50
2018-06-04T23:16:45.719Z,6.30
2018-06-04T23:19:15.190Z,7.53
2018-06-04T23:21:44.581Z,7.95
2018-06-04T23:24:14.035Z,7.27
2018-06-04T23:26:43.459Z,7.10
2018-06-04T23:29:12.828Z,7.63
2018-06-04T23:31:42.230Z,7.30
2018-06-04T23:34:11.641Z,6.77
2018-06-04T23:36:41.061Z,8.57
2018-06-04T23:39:10.485Z,8.20
2018-06-04T23:41:39.873Z,8.60
2018-06-04T23:44:09.287Z,8.30
2018-06-04T23:46:39.265Z,8.27
2018-06-04T23:49:09.016Z,6.97
2018-06-04T23:51:38.602Z,9.40
2018-06-04T23:54:07.991Z,18.50
2018-06-04T23:56:38.255Z,12.30
2018-06-04T23:59:07.656Z,11.30
